createdAt,value
2022-09-26T00:01:17.002Z,23.63
2022-09-26T00:03:45.948Z,26.65
2022-09-26T00:06:13.323Z,24.35
2022-09-26T00:08:40.228Z,24.60
2022-09-26T00:11:09.335Z,23.77
2022-09-26T00:13:38.139Z,26.70
2022-09-26T00:16:05.634Z,19.92
2022-09-26T00:18:32.683Z,20.92
2022-09-26T00:21:04.618Z,20.38
2022-09-26T00:23:31.285Z,29.70
2022-09-26T00:25:58.551Z,20.30
2022-09-26T00:28:25.522Z,20.25
2022-09-26T00:30:52.207Z,20.83
2022-09-26T00:33:18.721Z,20.17
2022-09-26T00:35:52.891Z,20.67
2022-09-26T00:38:20.057Z,23.45
2022-09-26T00:40:47.973Z,23.00
2022-09-26T00:43:42.371Z,24.33
2022-09-26T00:46:27.728Z,21.20
2022-09-26T00:49:04.937Z,18.67
2022-09-26T00:51:33.861Z,18.40
2022-09-26T00:54:00.668Z,22.58
2022-09-26T00:56:31.897Z,22.38
2022-09-26T01:01:43.435Z,22.60
2022-09-26T01:04:12.554Z,23.83
2022-09-26T01:06:39.510Z,21.85
2022-09-26T01:09:09.816Z,24.80
2022-09-26T01:11:37.614Z,22.50
2022-09-26T01:14:06.371Z,25.10
2022-09-26T01:16:34.151Z,19.88
2022-09-26T01:19:04.225Z,23.70
2022-09-26T01:21:57.161Z,18.85
2022-09-26T01:24:48.149Z,16.85
2022-09-26T01:27:45.382Z,19.70
2022-09-26T01:30:21.477Z,18.50
2022-09-26T01:33:13.034Z,22.58
2022-09-26T01:38:52.532Z,21.25
2022-09-26T01:41:34.000Z,21.15
2022-09-26T01:44:16.325Z,20.05
2022-09-26T01:46:52.139Z,25.10
2022-09-26T01:49:34.103Z,18.63
2022-09-26T01:52:10.449Z,21.65
2022-09-26T01:54:42.869Z,24.55
2022-09-26T01:57:15.903Z,25.48
2022-09-26T01:59:49.896Z,20.23
2022-09-26T02:02:21.436Z,27.98
2022-09-26T02:04:55.154Z,24.98
2022-09-26T02:07:31.665Z,30.67
2022-09-26T02:10:06.037Z,32.95
2022-09-26T02:12:39.468Z,31.35
2022-09-26T02:15:12.909Z,33.15
2022-09-26T02:17:43.859Z,28.75
2022-09-26T02:20:16.254Z,31.52
2022-09-26T02:22:44.380Z,35.88
2022-09-26T02:25:14.858Z,30.30
2022-09-26T02:27:41.531Z,28.25
2022-09-26T02:30:10.182Z,24.63
2022-09-26T02:32:37.219Z,25.02
2022-09-26T02:35:37.653Z,27.15
2022-09-26T02:38:05.555Z,24.67
2022-09-26T02:40:51.309Z,24.75
2022-09-26T02:43:54.065Z,26.70
2022-09-26T02:46:28.472Z,22.27
2022-09-26T02:49:33.532Z,26.10
2022-09-26T02:52:16.028Z,24.02
2022-09-26T02:54:58.583Z,22.20
2022-09-26T02:57:47.117Z,26.25
2022-09-26T03:00:20.969Z,23.95
2022-09-26T03:02:55.238Z,22.33
2022-09-26T03:05:26.223Z,20.25
2022-09-26T03:08:02.474Z,20.13
2022-09-26T03:10:31.772Z,21.40
2022-09-26T03:13:04.242Z,20.80
2022-09-26T03:15:33.067Z,21.60
2022-09-26T03:18:01.799Z,21.27
2022-09-26T03:20:28.917Z,20.35
2022-09-26T03:22:55.912Z,22.63
2022-09-26T03:25:25.818Z,19.35
2022-09-26T03:28:02.237Z,22.25
2022-09-26T03:30:32.194Z,18.80
2022-09-26T03:33:17.348Z,19.70
2022-09-26T03:35:43.769Z,20.20
2022-09-26T03:38:14.241Z,21.48
2022-09-26T03:40:46.525Z,22.17
2022-09-26T03:46:15.810Z,18.05
2022-09-26T03:48:43.116Z,17.58
2022-09-26T03:51:13.115Z,22.25
2022-09-26T03:53:42.376Z,17.25
2022-09-26T03:56:14.889Z,17.10
2022-09-26T03:58:42.427Z,20.08
2022-09-26T04:01:11.936Z,19.85
2022-09-26T04:03:42.370Z,18.40
2022-09-26T04:06:11.475Z,18.70
2022-09-26T04:08:41.668Z,18.65
2022-09-26T04:11:12.342Z,21.45
2022-09-26T04:13:51.339Z,22.35
2022-09-26T04:16:22.594Z,20.85
2022-09-26T04:18:59.144Z,22.73
2022-09-26T04:21:27.151Z,21.45
2022-09-26T04:23:54.536Z,25.60
2022-09-26T04:26:24.217Z,20.48
2022-09-26T04:28:54.749Z,19.38
2022-09-26T04:31:24.217Z,20.70
2022-09-26T04:33:57.066Z,21.60
2022-09-26T04:36:23.767Z,21.70
2022-09-26T04:38:50.172Z,22.02
2022-09-26T04:41:20.017Z,23.25
2022-09-26T04:43:48.610Z,22.45
2022-09-26T04:46:24.557Z,23.20
2022-09-26T04:48:56.332Z,24.30
2022-09-26T04:51:25.907Z,23.90
2022-09-26T04:53:52.674Z,21.60
2022-09-26T04:56:26.239Z,21.00
2022-09-26T04:58:56.109Z,21.73
2022-09-26T05:04:08.066Z,22.25
2022-09-26T05:06:34.435Z,24.80
2022-09-26T05:09:04.120Z,25.90
2022-09-26T05:11:40.392Z,23.13
2022-09-26T05:14:10.657Z,25.40
2022-09-26T05:16:38.865Z,22.65
2022-09-26T05:19:06.341Z,21.60
2022-09-26T05:21:36.065Z,23.98
2022-09-26T05:24:21.058Z,25.80
2022-09-26T05:26:50.715Z,24.48
2022-09-26T05:29:20.351Z,23.83
2022-09-26T05:31:54.553Z,23.98
2022-09-26T05:34:24.958Z,22.33
2022-09-26T05:36:53.161Z,29.10
2022-09-26T05:39:42.301Z,22.92
2022-09-26T05:42:09.972Z,23.77
2022-09-26T05:44:37.654Z,24.42
2022-09-26T05:47:04.506Z,27.17
2022-09-26T05:49:32.880Z,26.38
2022-09-26T05:51:59.596Z,25.80
2022-09-26T05:54:26.410Z,26.02
2022-09-26T05:56:54.031Z,27.23
2022-09-26T05:59:38.675Z,26.00
2022-09-26T06:02:25.364Z,25.35
2022-09-26T06:05:10.428Z,30.15
2022-09-26T06:07:36.774Z,31.73
2022-09-26T06:10:07.435Z,23.55
2022-09-26T06:12:40.830Z,28.85
2022-09-26T06:15:09.425Z,23.77
2022-09-26T06:17:36.342Z,22.52
2022-09-26T06:20:04.391Z,23.40
2022-09-26T06:22:39.228Z,23.00
2022-09-26T06:25:06.279Z,23.30
2022-09-26T06:27:38.717Z,23.05
2022-09-26T06:30:12.911Z,30.58
2022-09-26T06:32:40.253Z,22.05
2022-09-26T06:35:20.652Z,29.92
2022-09-26T06:38:01.256Z,21.67
2022-09-26T06:40:29.087Z,20.20
2022-09-26T06:42:55.921Z,21.48
2022-09-26T06:45:27.788Z,18.65
2022-09-26T06:48:08.395Z,20.52
2022-09-26T06:50:58.475Z,26.35
2022-09-26T06:53:24.925Z,19.98
2022-09-26T06:55:51.359Z,23.27
2022-09-26T06:58:17.853Z,21.42
2022-09-26T07:00:53.609Z,26.13
2022-09-26T07:03:42.920Z,19.92
2022-09-26T07:06:30.961Z,24.75
2022-09-26T07:09:02.991Z,18.77
2022-09-26T07:12:13.973Z,22.48
2022-09-26T07:14:42.017Z,13.80
2022-09-26T07:17:21.476Z,13.40
2022-09-26T07:20:10.263Z,11.57
2022-09-26T07:22:55.675Z,9.98
2022-09-26T07:25:22.888Z,10.43
2022-09-26T07:27:51.536Z,11.10
2022-09-26T07:30:21.316Z,13.52
2022-09-26T07:33:03.473Z,11.70
2022-09-26T07:35:36.482Z,26.05
2022-09-26T07:38:05.051Z,14.82
2022-09-26T07:40:32.314Z,13.85
2022-09-26T07:43:19.734Z,15.20
2022-09-26T07:46:09.241Z,16.98
2022-09-26T07:48:54.903Z,11.15
2022-09-26T07:51:40.088Z,14.73
2022-09-26T07:54:10.674Z,18.17
2022-09-26T07:56:55.734Z,12.25
2022-09-26T07:59:36.632Z,15.63
2022-09-26T08:02:25.760Z,10.70
2022-09-26T08:04:58.876Z,13.27
2022-09-26T08:07:27.766Z,11.60
2022-09-26T08:10:02.910Z,11.68
2022-09-26T08:12:48.373Z,10.40
2022-09-26T08:15:30.447Z,10.30
2022-09-26T08:18:05.266Z,10.63
2022-09-26T08:20:32.465Z,13.85
2022-09-26T08:23:00.137Z,18.10
2022-09-26T08:25:26.742Z,9.50
2022-09-26T08:28:01.165Z,10.77
2022-09-26T08:30:31.185Z,10.55
2022-09-26T08:33:01.962Z,10.23
2022-09-26T08:35:35.583Z,10.90
2022-09-26T08:38:15.461Z,11.77
2022-09-26T08:40:51.429Z,10.82
2022-09-26T08:43:49.207Z,7.93
2022-09-26T08:46:59.202Z,11.15
2022-09-26T08:49:55.767Z,8.32
2022-09-26T08:52:41.237Z,11.60
2022-09-26T08:55:15.702Z,10.05
2022-09-26T08:57:45.050Z,11.40
2022-09-26T09:00:19.315Z,8.77
2022-09-26T09:03:03.055Z,6.38
2022-09-26T09:05:33.849Z,5.57
2022-09-26T09:08:07.820Z,8.40
2022-09-26T09:10:47.197Z,7.20
2022-09-26T09:13:24.479Z,6.18
2022-09-26T09:16:20.579Z,6.15
2022-09-26T09:19:48.609Z,7.55
2022-09-26T09:23:13.619Z,6.45
2022-09-26T09:25:55.314Z,4.88
2022-09-26T09:28:53.140Z,5.88
2022-09-26T09:31:21.463Z,4.95
2022-09-26T09:34:02.008Z,6.45
2022-09-26T09:36:54.115Z,5.70
2022-09-26T09:39:35.168Z,7.00
2022-09-26T09:42:19.997Z,8.75
2022-09-26T09:44:57.598Z,8.02
2022-09-26T09:47:27.547Z,7.63
2022-09-26T09:49:56.689Z,6.53
2022-09-26T09:52:52.964Z,5.63
2022-09-26T09:55:42.444Z,5.53
2022-09-26T09:58:43.690Z,10.27
2022-09-26T10:01:18.859Z,7.10
2022-09-26T10:04:01.228Z,4.20
2022-09-26T10:06:45.393Z,6.18
2022-09-26T10:09:38.845Z,7.60
2022-09-26T10:12:28.737Z,4.03
2022-09-26T10:15:26.215Z,7.03
2022-09-26T10:18:24.708Z,4.93
2022-09-26T10:21:16.307Z,5.65
2022-09-26T10:23:46.756Z,4.78
2022-09-26T10:26:34.817Z,3.97
2022-09-26T10:29:25.024Z,6.00
2022-09-26T10:31:57.217Z,5.03
2022-09-26T10:34:27.865Z,4.53
2022-09-26T10:36:55.901Z,12.30
2022-09-26T10:39:49.232Z,7.55
2022-09-26T10:42:19.999Z,2.25
2022-09-26T10:44:50.420Z,3.78
2022-09-26T10:47:21.948Z,6.43
2022-09-26T10:50:29.359Z,2.03
2022-09-26T10:53:13.996Z,6.90
2022-09-26T10:55:46.095Z,5.88
2022-09-26T10:58:24.011Z,6.53
2022-09-26T11:00:54.230Z,3.55
2022-09-26T11:03:38.371Z,5.55
2022-09-26T11:06:35.501Z,4.53
2022-09-26T11:09:27.323Z,2.00
2022-09-26T11:12:29.988Z,4.80
2022-09-26T11:15:13.689Z,1.00
2022-09-26T11:17:47.219Z,3.95
2022-09-26T11:20:22.117Z,8.88
2022-09-26T11:22:58.306Z,3.03
2022-09-26T11:25:29.192Z,3.20
2022-09-26T11:28:07.004Z,3.97
2022-09-26T11:30:54.009Z,2.08
2022-09-26T11:33:24.618Z,1.92
2022-09-26T11:36:27.093Z,1.50
2022-09-26T11:38:57.783Z,1.98
2022-09-26T11:41:37.051Z,5.35
2022-09-26T11:44:42.051Z,1.50
2022-09-26T11:47:54.188Z,2.38
2022-09-26T11:50:56.164Z,2.00
2022-09-26T11:53:45.775Z,1.70
2022-09-26T11:56:33.945Z,3.08
2022-09-26T11:59:20.520Z,1.77
2022-09-26T12:01:55.731Z,2.00
2022-09-26T12:04:45.615Z,2.05
2022-09-26T12:07:22.288Z,6.90
2022-09-26T12:10:25.188Z,2.75
2022-09-26T12:13:17.784Z,2.92
2022-09-26T12:16:02.775Z,2.08
2022-09-26T12:18:40.114Z,2.85
2022-09-26T12:21:31.643Z,3.17
2022-09-26T12:24:00.781Z,3.17
2022-09-26T12:26:39.702Z,4.97
2022-09-26T12:29:39.812Z,2.97
2022-09-26T12:32:41.406Z,1.98
2022-09-26T12:35:32.197Z,1.52
2022-09-26T12:38:15.657Z,2.65
2022-09-26T12:41:01.986Z,4.05
2022-09-26T12:43:50.982Z,2.25
2022-09-26T12:46:41.482Z,2.58
2022-09-26T12:49:13.915Z,2.40
2022-09-26T12:51:42.821Z,3.45
2022-09-26T12:54:15.463Z,2.60
2022-09-26T12:56:51.704Z,1.83
2022-09-26T12:59:34.307Z,1.92
2022-09-26T13:02:41.969Z,1.52
2022-09-26T13:05:27.888Z,1.67
2022-09-26T13:08:18.364Z,2.50
2022-09-26T13:11:07.818Z,2.10
2022-09-26T13:13:49.181Z,1.73
2022-09-26T13:18:56.455Z,2.13
2022-09-26T13:21:38.419Z,3.60
2022-09-26T13:24:13.884Z,2.25
2022-09-26T13:26:46.827Z,2.67
2022-09-26T13:29:27.001Z,2.03
2022-09-26T13:32:06.362Z,1.70
2022-09-26T13:34:45.249Z,2.17
2022-09-26T13:37:32.337Z,1.23
2022-09-26T13:40:09.656Z,1.50
2022-09-26T13:42:47.969Z,2.38
2022-09-26T13:45:36.168Z,2.17
2022-09-26T13:48:16.644Z,1.67
2022-09-26T13:50:55.876Z,1.67
2022-09-26T13:53:38.093Z,1.13
2022-09-26T13:56:40.336Z,3.45
2022-09-26T13:59:12.664Z,2.03
2022-09-26T14:01:59.735Z,2.13
2022-09-26T14:04:34.497Z,1.08
2022-09-26T14:07:28.999Z,1.45
2022-09-26T14:10:03.625Z,1.92
2022-09-26T14:12:52.557Z,2.00
2022-09-26T14:15:28.267Z,0.90
2022-09-26T14:18:07.809Z,2.97
2022-09-26T14:20:50.685Z,1.65
2022-09-26T14:23:39.026Z,0.95
2022-09-26T14:26:28.174Z,1.45
2022-09-26T14:28:56.481Z,1.55
2022-09-26T14:31:26.154Z,2.28
2022-09-26T14:34:15.433Z,4.45
2022-09-26T14:36:43.847Z,3.10
2022-09-26T14:39:34.461Z,2.30
2022-09-26T14:42:08.986Z,2.85
2022-09-26T14:44:37.391Z,2.85
2022-09-26T14:47:11.260Z,2.65
2022-09-26T14:49:37.713Z,3.55
2022-09-26T14:52:08.941Z,4.57
2022-09-26T14:54:40.245Z,1.90
2022-09-26T14:57:20.877Z,3.00
2022-09-26T14:59:47.963Z,1.52
2022-09-26T15:02:14.401Z,1.50
2022-09-26T15:04:43.373Z,2.30
2022-09-26T15:07:24.908Z,1.88
2022-09-26T15:09:59.697Z,2.85
2022-09-26T15:12:28.561Z,2.40
2022-09-26T15:15:15.318Z,2.15
2022-09-26T15:17:48.612Z,1.52
2022-09-26T15:20:18.595Z,1.70
2022-09-26T15:22:47.000Z,3.00
2022-09-26T15:25:22.801Z,1.73
2022-09-26T15:27:56.327Z,2.25
2022-09-26T15:30:27.181Z,3.88
2022-09-26T15:32:57.909Z,1.15
2022-09-26T15:35:26.690Z,0.88
2022-09-26T15:38:00.974Z,1.60
2022-09-26T15:40:30.146Z,2.88
2022-09-26T15:43:15.894Z,2.00
2022-09-26T15:45:59.492Z,1.73
2022-09-26T15:48:32.464Z,2.08
2022-09-26T15:51:14.822Z,2.33
2022-09-26T15:53:49.224Z,4.35
2022-09-26T15:56:23.857Z,4.10
2022-09-26T15:59:05.919Z,1.85
2022-09-26T16:01:40.411Z,3.95
2022-09-26T16:04:21.800Z,1.88
2022-09-26T16:09:34.698Z,2.70
2022-09-26T16:12:23.332Z,7.22
2022-09-26T16:14:58.658Z,5.38
2022-09-26T16:17:40.272Z,5.72
2022-09-26T16:20:09.647Z,1.92
2022-09-26T16:22:46.385Z,2.38
2022-09-26T16:25:15.467Z,3.38
2022-09-26T16:27:42.416Z,3.75
2022-09-26T16:30:20.984Z,3.70
2022-09-26T16:32:47.543Z,1.67
2022-09-26T16:35:23.851Z,5.10
2022-09-26T16:37:59.447Z,4.70
2022-09-26T16:40:30.605Z,4.35
2022-09-26T16:43:18.860Z,5.25
2022-09-26T16:45:46.929Z,6.57
2022-09-26T16:48:36.402Z,2.58
2022-09-26T16:51:18.373Z,3.25
2022-09-26T16:53:46.558Z,3.35
2022-09-26T16:56:15.728Z,3.63
2022-09-26T16:58:49.013Z,2.88
2022-09-26T17:01:34.650Z,1.60
2022-09-26T17:04:01.298Z,1.40
2022-09-26T17:06:27.760Z,3.20
2022-09-26T17:08:56.450Z,1.52
2022-09-26T17:11:23.721Z,2.38
2022-09-26T17:13:50.261Z,1.20
2022-09-26T17:16:16.752Z,1.27
2022-09-26T17:18:44.703Z,2.17
2022-09-26T17:21:13.964Z,3.58
2022-09-26T17:23:41.774Z,1.33
2022-09-26T17:26:23.604Z,2.63
2022-09-26T17:28:53.264Z,2.15
2022-09-26T17:31:20.344Z,2.03
2022-09-26T17:33:52.506Z,3.47
2022-09-26T17:36:24.826Z,1.48
2022-09-26T17:38:51.643Z,4.10
2022-09-26T17:41:18.076Z,2.15
2022-09-26T17:43:45.092Z,1.90
2022-09-26T17:46:15.403Z,2.58
2022-09-26T17:48:43.162Z,6.18
2022-09-26T17:51:13.773Z,2.65
2022-09-26T17:53:50.200Z,2.58
2022-09-26T17:56:18.804Z,2.15
2022-09-26T17:58:47.149Z,3.33
2022-09-26T18:01:33.377Z,3.55
2022-09-26T18:04:06.141Z,3.42
2022-09-26T18:06:33.114Z,2.15
2022-09-26T18:09:05.528Z,1.35
2022-09-26T18:11:34.282Z,3.63
2022-09-26T18:14:03.278Z,3.65
2022-09-26T18:16:29.621Z,4.00
2022-09-26T18:18:56.080Z,3.60
2022-09-26T18:21:24.125Z,2.05
2022-09-26T18:23:55.500Z,5.97
2022-09-26T18:28:48.365Z,2.38
2022-09-26T18:31:14.986Z,2.40
2022-09-26T18:33:41.341Z,3.50
2022-09-26T18:36:12.064Z,3.83
2022-09-26T18:38:38.413Z,3.35
2022-09-26T18:41:06.925Z,5.38
2022-09-26T18:43:40.495Z,4.28
2022-09-26T18:46:15.736Z,2.55
2022-09-26T18:48:42.840Z,3.42
2022-09-26T18:51:12.793Z,4.43
2022-09-26T18:53:40.321Z,4.53
2022-09-26T18:56:26.765Z,2.90
2022-09-26T18:58:53.595Z,3.80
2022-09-26T19:01:44.151Z,3.42
2022-09-26T19:04:17.625Z,5.20
2022-09-26T19:06:47.062Z,5.38
2022-09-26T19:09:15.093Z,4.50
2022-09-26T19:11:42.022Z,4.43
2022-09-26T19:14:25.762Z,4.57
2022-09-26T19:16:52.938Z,4.03
2022-09-26T19:19:20.095Z,4.43
2022-09-26T19:21:56.820Z,4.30
2022-09-26T19:24:23.208Z,6.80
2022-09-26T19:27:06.116Z,3.42
2022-09-26T19:29:44.927Z,4.43
2022-09-26T19:32:20.361Z,4.30
2022-09-26T19:34:51.610Z,6.47
2022-09-26T19:37:18.200Z,3.50
2022-09-26T19:39:44.690Z,8.63
2022-09-26T19:42:11.501Z,8.20
2022-09-26T19:44:37.876Z,5.57
2022-09-26T19:47:04.672Z,5.72
2022-09-26T19:49:32.785Z,10.68
2022-09-26T19:52:02.071Z,5.50
2022-09-26T19:54:28.496Z,7.00
2022-09-26T19:56:54.864Z,6.18
2022-09-26T19:59:25.325Z,6.22
2022-09-26T20:01:53.709Z,4.55
2022-09-26T20:04:20.483Z,6.78
2022-09-26T20:06:47.204Z,8.35
2022-09-26T20:09:18.954Z,4.68
2022-09-26T20:11:45.469Z,8.23
2022-09-26T20:14:24.408Z,9.02
2022-09-26T20:16:57.361Z,9.50
2022-09-26T20:19:34.464Z,5.53
2022-09-26T20:22:03.122Z,7.90
2022-09-26T20:24:35.150Z,6.97
2022-09-26T20:27:03.517Z,4.90
2022-09-26T20:29:29.986Z,8.77
2022-09-26T20:31:56.483Z,8.35
2022-09-26T20:34:22.831Z,7.20
2022-09-26T20:36:51.500Z,7.70
2022-09-26T20:39:23.181Z,5.95
2022-09-26T20:41:51.239Z,5.93
2022-09-26T20:44:27.241Z,6.80
2022-09-26T20:46:58.693Z,5.80
2022-09-26T20:49:34.503Z,4.72
2022-09-26T20:52:02.377Z,7.15
2022-09-26T20:54:31.031Z,6.53
2022-09-26T20:56:58.704Z,5.20
2022-09-26T20:59:26.070Z,6.32
2022-09-26T21:01:54.350Z,8.38
2022-09-26T21:04:29.489Z,7.53
2022-09-26T21:06:56.156Z,6.85
2022-09-26T21:09:22.560Z,7.95
2022-09-26T21:11:48.992Z,7.38
2022-09-26T21:14:16.604Z,5.63
2022-09-26T21:16:46.547Z,9.10
2022-09-26T21:19:21.026Z,5.30
2022-09-26T21:21:51.711Z,8.50
2022-09-26T21:24:41.201Z,7.80
2022-09-26T21:27:11.440Z,6.25
2022-09-26T21:29:38.025Z,6.15
2022-09-26T21:32:08.213Z,5.90
2022-09-26T21:34:36.658Z,6.22
2022-09-26T21:37:03.754Z,5.72
2022-09-26T21:39:30.578Z,8.05
2022-09-26T21:42:01.577Z,7.55
2022-09-26T21:44:37.495Z,5.90
2022-09-26T21:47:04.162Z,7.25
2022-09-26T21:49:30.907Z,6.07
2022-09-26T21:52:17.269Z,7.90
2022-09-26T21:54:45.054Z,5.68
2022-09-26T21:57:17.297Z,5.40
2022-09-26T21:59:44.228Z,4.75
2022-09-26T22:02:10.669Z,8.73
2022-09-26T22:04:37.070Z,7.00
2022-09-26T22:07:03.433Z,6.70
2022-09-26T22:09:30.276Z,6.95
2022-09-26T22:11:56.702Z,5.35
2022-09-26T22:14:23.058Z,6.50
2022-09-26T22:16:49.423Z,8.30
2022-09-26T22:19:16.515Z,4.65
2022-09-26T22:21:43.083Z,6.25
2022-09-26T22:24:10.307Z,6.80
2022-09-26T22:26:36.716Z,5.70
2022-09-26T22:29:03.209Z,10.38
2022-09-26T22:31:29.646Z,5.07
2022-09-26T22:33:57.362Z,4.00
2022-09-26T22:36:24.301Z,7.20
2022-09-26T22:38:50.697Z,7.13
2022-09-26T22:41:17.088Z,4.03
2022-09-26T22:43:43.426Z,6.10
2022-09-26T22:46:12.399Z,4.43
2022-09-26T22:48:45.794Z,2.55
2022-09-26T22:51:13.777Z,5.95
2022-09-26T22:53:41.618Z,6.65
2022-09-26T22:56:11.296Z,3.55
2022-09-26T22:58:40.562Z,4.03
2022-09-26T23:01:12.593Z,3.90
2022-09-26T23:03:40.065Z,3.47
2022-09-26T23:06:07.933Z,2.47
2022-09-26T23:08:34.981Z,5.40
2022-09-26T23:11:02.652Z,3.13
2022-09-26T23:13:31.465Z,2.92
2022-09-26T23:16:26.998Z,3.10
2022-09-26T23:18:54.211Z,3.65
2022-09-26T23:21:22.982Z,2.58
2022-09-26T23:23:52.525Z,3.05
2022-09-26T23:26:22.124Z,2.13
2022-09-26T23:28:50.063Z,1.83
2022-09-26T23:31:16.946Z,2.22
2022-09-26T23:33:43.649Z,4.15
2022-09-26T23:36:10.954Z,3.33
2022-09-26T23:38:39.156Z,2.50
2022-09-26T23:41:10.199Z,3.30
2022-09-26T23:43:37.514Z,1.63
2022-09-26T23:46:04.459Z,2.72
2022-09-26T23:48:30.957Z,2.88
2022-09-26T23:50:57.598Z,1.92
2022-09-26T23:53:24.062Z,3.65
2022-09-26T23:55:50.560Z,2.00
2022-09-26T23:58:17.053Z,2.90
